Close sub menu
NASDAQ
NY-Nasdaq Composite 25326,126 +258,33 +1,03% (23:16)
Stijgers 1 dag
Dalers 1 dag
Indices 1 dag
Intel Corp +12,9%
Micron Technology Inc +11,1%
QUALCOMM +10,8%
Enphase Energy +10,7%
GlobalFoundries +9,3%
Lam Research Corp +6,7%
Applied Materials +5,0%
ASML Holding NV +4,1%
Advanced Micro Devices +4,0%
Microchip Technology +3,3%
Marvell Technology +3,1%
Apple +2,7%
PayPal Holdings -7,7%
Lucid Group Inc -6,6%
Charter Communications -4,3%
eBay -3,7%
Diamondback Energy -3,5%
Netflix Inc. -3,4%
Comcast Corp -2,3%
Intuit -2,1%
Align Technology -1,8%
Baker Hughes Company -1,8%
SiriusXM Holdings Inc -1,4%
CoStar Group -1,4%
AEX* 1.029,86+1,5%
Midkap* 1.066,54+2,0%
AMS Next 20®* 1.679,17+1,3%
FTSE100 10.433,15+2,1%
Dow Jones 49.298,25+0,7%
NASDAQ 25.326,126+1,0%
S&P500 7.259,22+0,8%
S&P Future 7.342,25+0,8%
BEL20** 5.440,14+1,6%
CAC 40** 8.062,31+1,1%
DAX 25.042,56+2,6%
* real time    ** slotkoers
NaamKoersVorige+/- %1 wk1 mndDit jaar 1 jaarTijd
Adobe 255,62 253,96 +0,7% +5,1% +5,2% -27,0% -32,9% 22:00
Advanced Micro Devices 355,26 341,54 +4,0% +9,9% +63,3% +65,9% +253,2% 22:00
Airbnb 139,68 138,86 +0,6% +0,5% +11,8% +2,9% +11,8% 22:00
Align Technology 168,82 171,88 -1,8% -4,8% -1,1% +8,1% -4,9% 22:00
Alphabet 384,31 379,64 +1,2% +10,6% +30,5% +22,5% +131,4% 22:00
Alphabet 388,47 383,25 +1,4% +11,1% +31,3% +24,1% +136,6% 22:00
Amazon.com 273,52 272,05 +0,6% +5,3% +30,4% +18,5% +46,8% 22:00
American Electric Power Company 137,04 134,66 +1,8% +1,1% +3,3% +18,8% +27,6% 22:00
Amgen 329,59 323,85 +1,8% -2,9% -5,3% +0,7% +17,7% 22:00
Analog Devices 404,84 397,02 +2,0% +5,6% +27,2% +49,3% +104,8% 22:00
Ansys 374,30 374,30 -- -- -4,7% +11,0% +15,2% 22:00
Apple 284,18 276,83 +2,7% +5,0% +11,1% +4,5% +42,9% 22:00
Applied Materials 410,95 391,38 +5,0% +7,8% +18,0% +59,9% +165,8% 22:00
ASML Holding NV 1.442,55 1.386,21 +4,1% +4,2% +9,5% +34,8% +111,1% 22:00
AstraZeneca PLC 194,94 194,94 0,0% -- +0,3% +112,1% +200,4% 00:00
Atlassian Corp 92,47 93,16 -0,9% +32,6% +35,4% -43,0% -55,5% 22:00
Autodesk 249,42 247,54 +0,8% +6,2% +4,8% -15,7% -10,9% 22:00
Automatic Data Processing 210,60 211,32 -0,3% +5,7% +3,2% -18,1% -30,7% 22:00
Baker Hughes Company 67,78 69,01 -1,8% +0,2% +12,3% +48,8% +84,4% 22:00
Biogen 189,13 187,21 +1,0% +3,1% +6,6% +7,5% +55,3% 22:00
Booking Holdings Inc. 167,61 165,58 +1,2% -3,3% -0,1% -21,8% -19,3% 22:00
Broadcom Inc. 427,45 416,50 +2,6% +6,9% +35,9% +23,5% +113,0% 22:00
Cadence Design Systems 353,63 349,51 +1,2% +8,7% +26,9% +13,1% +14,5% 22:00
Charter Communications 158,17 165,34 -4,3% -8,6% -28,0% -24,2% -59,9% 22:00
Cintas Corp 169,17 166,89 +1,4% -2,9% -2,9% -10,0% -20,1% 22:00
Cisco Systems 94,30 92,63 +1,8% +8,6% +19,3% +22,4% +59,0% 22:00
Cognizant Technology Solutions Corp 51,87 51,86 0,0% -5,9% -17,0% -37,5% -33,4% 22:00
Comcast Corp 26,46 27,07 -2,3% -4,3% -5,3% -11,5% -23,2% 22:00
Constellation Energy Corp 320,36 321,05 -0,2% +4,8% +17,4% -9,3% +29,0% 22:00
Copart 33,15 33,29 -0,4% -0,6% -0,7% -15,3% -45,7% 22:00
CoStar Group 34,90 35,38 -1,4% -2,9% -12,6% -48,1% -54,7% 22:00
Costco Wholesale Corp 1.016,42 1.012,79 +0,4% +2,3% +0,2% +17,9% +0,2% 22:00
CrowdStrike Holdings 476,53 469,24 +1,6% +4,7% +19,4% +1,7% +7,5% 22:00
CSX Corp 45,03 44,72 +0,7% -0,4% +9,2% +24,2% +58,2% 22:00
Datadog 145,73 146,69 -0,7% +10,8% +21,1% +7,2% +37,9% 22:00
DexCom 59,47 60,04 -0,9% +0,3% -4,4% -10,4% -25,9% 22:00
Diamondback Energy 206,19 213,69 -3,5% +3,1% +6,3% +37,2% +54,9% 22:00
Dollar Tree 93,69 94,05 -0,4% -4,6% -13,6% -23,8% +11,6% 22:00
eBay 105,27 109,33 -3,7% +4,9% +11,8% +20,9% +49,7% 22:00
Electronic Arts 201,41 201,82 -0,1% -0,6% -1,1% -1,4% +30,2% 22:00
Enphase Energy 36,01 32,54 +10,7% +5,0% +3,1% +12,3% -18,9% 22:00
Exelon Corp 46,18 46,61 -0,9% -1,8% -6,4% +5,9% +0,4% 22:00
Fastenal Co 44,33 44,88 -1,2% -0,8% -4,3% +10,5% +7,6% 22:00
Fortinet 89,92 89,24 +0,8% +4,9% +9,0% +13,2% -17,3% 22:00
Gilead Sciences 133,48 132,69 +0,6% +3,3% -4,5% +8,8% +29,8% 22:00
GlobalFoundries 73,93 67,75 +9,3% +24,3% +69,0% +111,7% +106,0% 22:00
Honeywell International 209,06 209,59 -0,3% -1,8% -8,9% +7,2% -2,4% 22:00
IDEXX Laboratories 562,97 563,12 0,0% -0,9% -1,2% -16,8% +18,5% 22:00
Illumina 139,05 139,37 -0,2% +9,6% +9,2% +6,0% +77,9% 22:00
Intel Corp 108,18 95,78 +12,9% +28,0% +114,7% +193,2% +433,7% 22:00
Intuit 398,32 406,99 -2,1% -0,5% -5,7% -39,9% -37,0% 22:00
Intuitive Surgical 451,31 452,35 -0,2% -3,3% -0,2% -20,3% -15,1% 22:00
JD.com 29,69 30,04 -1,2% -0,1% +4,2% +3,4% -12,8% 22:00
Keurig Dr Pepper 28,92 28,87 +0,2% +0,5% +14,3% +3,2% -16,1% 22:00
KLA Corp 1.732,90 1.713,32 +1,1% -4,2% +14,3% +42,6% +150,0% 22:00
Kraft Heinz Company (The) 22,56 22,42 +0,5% +0,4% -1,0% -7,0% -21,1% 22:00
Lam Research Corp 275,80 258,57 +6,7% +9,8% +26,2% +61,1% +273,2% 22:00
Lucid Group Inc 6,25 6,69 -6,6% +6,5% -37,2% -40,9% -73,5% 22:00
lululemon athletica 130,21 128,98 +1,0% -8,6% -16,4% -37,3% -53,3% 22:00
Marriott International 354,52 347,24 +2,1% -1,1% +6,8% +14,3% +43,4% 22:00
Marvell Technology 168,75 163,66 +3,1% +10,1% +57,5% +98,6% +172,3% 22:00
MercadoLibre 1.816,80 1.813,53 +0,2% +1,4% +5,9% -9,8% -19,1% 22:00
Meta Platforms 605,08 610,41 -0,9% -9,9% +5,3% -8,3% +1,0% 22:00
Microchip Technology 98,48 95,30 +3,3% +16,9% +50,1% +54,6% +106,1% 22:00
Micron Technology Inc 640,45 576,45 +11,1% +27,0% +74,9% +124,4% +696,4% 22:00
Microsoft Corp 411,35 413,62 -0,5% -4,2% +10,1% -14,9% -5,7% 22:00
Moderna 46,71 47,30 -1,2% -0,9% -5,1% +58,4% +67,8% 22:00
Mondelez International 61,36 61,38 0,0% +4,8% +6,6% +14,0% -9,5% 22:00
Monster Beverage Corp 75,80 75,20 +0,8% -1,8% +4,7% -1,1% +24,4% 22:00
Netflix Inc. 87,89 91,02 -3,4% -4,7% -10,9% -6,3% -22,5% 22:00
NVIDIA Corp 196,50 198,48 -1,0% -7,8% +10,8% +5,4% +72,6% 22:00
NXP Semiconductors NV 292,42 290,76 +0,5% +26,9% +50,3% +34,7% +58,1% 22:00
Old Dominion Freight Line 196,08 192,18 +2,0% -11,6% -1,0% +25,1% +25,5% 22:00
O'Reilly Automotive Inc 95,00 93,98 +1,1% +3,7% +3,9% +4,2% +2,7% 22:00
PACCAR 113,42 114,37 -0,8% -5,2% -4,1% +3,6% +26,8% 22:00
Palo Alto Networks Inc 183,98 184,56 -0,3% +1,7% +12,7% -0,1% -2,2% 22:00
Paychex 92,85 92,48 +0,4% +2,0% +1,3% -17,2% -37,9% 22:00
PayPal Holdings 46,48 50,39 -7,7% -6,4% +2,5% -20,4% -32,2% 22:00
PDD Holdings 96,75 97,79 -1,1% -0,6% -4,1% -14,7% -12,7% 22:00
Pepsico 155,04 154,59 +0,3% -0,8% -1,3% +8,0% +17,5% 22:00
QUALCOMM 186,56 168,38 +10,8% +24,4% +47,1% +9,1% +33,8% 22:00
Regeneron Pharmaceuticals 702,33 709,21 -1,0% -4,0% -7,8% -9,0% +16,4% 22:00
Rivian Automotive 14,60 14,51 +0,6% -9,5% -5,2% -25,9% +7,7% 22:00
Ross Stores 227,43 226,02 +0,6% +0,8% +3,4% +26,3% +60,8% 22:00
Seagen 228,89 228,74 -- -- +7,2% +78,1% +78,3% 22:00
SiriusXM Holdings Inc 26,39 26,77 -1,4% +0,5% +10,9% +32,0% +24,0% 22:00
Starbucks Corp 104,94 104,97 0,0% +7,9% +16,1% +24,6% +28,5% 22:00
Synopsys 502,76 497,50 +1,0% +3,9% +27,1% +7,0% +5,3% 22:00
Tesla 389,30 392,51 -0,8% +3,5% +8,0% -13,4% +38,9% 22:00
Texas Instruments 280,88 280,89 0,0% +6,0% +44,1% +61,9% +72,9% 22:00
T-Mobile US 194,35 194,42 -0,1% +4,1% -3,5% -4,3% -21,7% 22:00
Verisk Analytics 180,44 178,68 +1,0% +2,1% -2,5% -19,3% -38,8% 22:00
Vertex Pharmaceuticals 424,21 429,85 -1,3% -1,4% -3,3% -6,4% -15,2% 22:00
Walgreens Boots Alliance 11,98 11,98 -- -- +0,5% +28,4% +40,6% 22:00
Warner Bros Discovery 27,24 26,96 +1,0% +1,1% -0,3% -5,5% +225,5% 22:00
Workday 128,88 127,89 +0,8% +6,4% -2,6% -40,0% -48,1% 22:00
Xcel Energy 81,45 81,17 +0,3% +2,5% +0,9% +10,3% +14,9% 22:00
Zoom Communications Inc 109,10 106,63 +2,3% +19,7% +32,5% +26,4% +39,5% 22:00
Zscaler 141,36 142,20 -0,6% +3,9% +2,0% -37,2% -39,3% 22:00
Powered by

Schakel browser notificaties in

Schakel browser notificaties in om meldingen te ontvangen op dit apparaat.

Browser notificaties inschakelen

U heeft browser notificaties voor fd.nl eerder geweigerd. Ga naar browser instellingen en sta browser notificaties toe voor fd.nl. De precieze handelingen zijn afhankelijk van uw browser.

U volgt een onderwerp

Wanneer deze zoekterm in een artikel voorkomt, zult u deze terugvinden in Mijn nieuws onder ‘Eurobonds’.

Wilt u via de FD App meldingen ontvangen voor dit onderwerp?

Wilt u via de FD App meldingen ontvangen voor dit onderwerp?

Ons privacy statement is van toepassing.

Meldingen

Wanneer deze zoekterm in een artikel voorkomt, zult u deze terugvinden in Mijn nieuws onder ‘Eurobonds’.

Wilt u via de FD App meldingen ontvangen voor dit onderwerp?

Wilt u via de FD App meldingen ontvangen voor dit onderwerp?